Accueil
METAR-TAF:

METAR-TAF

Aéroports :

Aéroport de Magenta

Nouméa, Nouvelle-Calédonie

latitude: 22-15-30S, longitude: 166-28-22E, altitude: 3 m

METAR: absent

Heure: 10:15 (23:15 UTC)

Prévision

Le bulletin a été fait il y a 6 heures et 15 minutes, à 17:00 UTC
Prévision valable du 19 à 18 UTC au 20 à 18 UTC
Vent 18 kt de est/sud-est
Visibilité 10 km ou plus
Quelques nuages à une hauteur de 1200 ft
Nuages fragmentés à une hauteur de 2500 ft
Nuages fragmentés à une hauteur de 3000 ft
Temporairement
du 19 à 18 UTC au 20 à 08 UTC
averses de pluie
Probabilité 40% :
Temporairement
du 19 à 23 UTC au 20 à 06 UTC
Visibilité: 4000 m
Nuages fragmentés à une hauteur de 1400 ft
averses de pluie

TAF: NWWM 191700Z 1918/2018 11018KT 9999 FEW012 BKN025 BKN030 TEMPO 1918/2008 SHRA PROB40 TEMPO 1923/2006 4000 SHRA BKN014

Observations et prévisions météorologiques de plus de 4000 aéroports (messages METAR et TAF).

Les stations disponibles sont représentées par des disques jaunes et rouges sur la carte.

Passer la souris dessus pour voir le nom de la station.

Cliquer dessus pour voir les observations et prévisions météorologiques.

Pour changer de carte: cliquez sur les boutons verts avec une croix noire pour zoomer, sur le bouton vert avec un tiret pour effectuer un zoom arrière, ou sur les flèches vertes pour les cartes adjacentes.


METAR-TAF: